sensor_id;sensor_type;location;lat;lon;timestamp;P1;durP1;ratioP1;P2;durP2;ratioP2
46713;SDS011;32445;51.376;10.874;2023-05-10T00:01:06;3.47;;;3.17;;
46713;SDS011;32445;51.376;10.874;2023-05-10T00:04:07;4.50;;;2.83;;
46713;SDS011;32445;51.376;10.874;2023-05-10T00:07:07;3.13;;;2.87;;
46713;SDS011;32445;51.376;10.874;2023-05-10T00:10:08;5.20;;;2.47;;
46713;SDS011;32445;51.376;10.874;2023-05-10T00:13:08;4.60;;;2.77;;
46713;SDS011;32445;51.376;10.874;2023-05-10T00:16:09;3.97;;;2.53;;
46713;SDS011;32445;51.376;10.874;2023-05-10T00:19:09;3.13;;;2.80;;
46713;SDS011;32445;51.376;10.874;2023-05-10T00:22:10;2.80;;;2.60;;
46713;SDS011;32445;51.376;10.874;2023-05-10T00:25:10;2.53;;;2.33;;
46713;SDS011;32445;51.376;10.874;2023-05-10T00:28:10;2.70;;;2.50;;
46713;SDS011;32445;51.376;10.874;2023-05-10T00:31:11;4.03;;;2.33;;
46713;SDS011;32445;51.376;10.874;2023-05-10T00:34:11;3.13;;;2.77;;
46713;SDS011;32445;51.376;10.874;2023-05-10T00:37:11;2.70;;;2.50;;
46713;SDS011;32445;51.376;10.874;2023-05-10T00:40:12;2.70;;;2.50;;
46713;SDS011;32445;51.376;10.874;2023-05-10T00:43:12;3.77;;;2.87;;
46713;SDS011;32445;51.376;10.874;2023-05-10T00:46:13;3.37;;;2.70;;
46713;SDS011;32445;51.376;10.874;2023-05-10T00:49:15;6.05;;;2.83;;
46713;SDS011;32445;51.376;10.874;2023-05-10T00:52:16;4.78;;;2.40;;
46713;SDS011;32445;51.376;10.874;2023-05-10T00:55:16;3.93;;;3.40;;
46713;SDS011;32445;51.376;10.874;2023-05-10T00:58:18;4.63;;;3.70;;
46713;SDS011;32445;51.376;10.874;2023-05-10T01:01:19;9.73;;;3.43;;
46713;SDS011;32445;51.376;10.874;2023-05-10T01:04:19;5.17;;;3.40;;
46713;SDS011;32445;51.376;10.874;2023-05-10T01:07:21;3.03;;;2.83;;
46713;SDS011;32445;51.376;10.874;2023-05-10T01:10:22;4.17;;;2.97;;
46713;SDS011;32445;51.376;10.874;2023-05-10T01:13:30;3.50;;;3.20;;
46713;SDS011;32445;51.376;10.874;2023-05-10T01:16:34;6.32;;;3.45;;
46713;SDS011;32445;51.376;10.874;2023-05-10T01:19:38;2.65;;;2.45;;
46713;SDS011;32445;51.376;10.874;2023-05-10T01:26:12;2.83;;;2.63;;
46713;SDS011;32445;51.376;10.874;2023-05-10T01:29:33;3.28;;;2.97;;
46713;SDS011;32445;51.376;10.874;2023-05-10T01:33:26;3.17;;;2.88;;
46713;SDS011;32445;51.376;10.874;2023-05-10T01:42:53;3.40;;;3.10;;
46713;SDS011;32445;51.376;10.874;2023-05-10T01:46:07;6.32;;;3.22;;
46713;SDS011;32445;51.376;10.874;2023-05-10T01:49:23;3.47;;;3.17;;
46713;SDS011;32445;51.376;10.874;2023-05-10T01:52:26;4.30;;;2.85;;
46713;SDS011;32445;51.376;10.874;2023-05-10T01:55:33;2.65;;;2.45;;
46713;SDS011;32445;51.376;10.874;2023-05-10T01:58:36;5.13;;;2.45;;
46713;SDS011;32445;51.376;10.874;2023-05-10T02:01:39;3.72;;;3.42;;
46713;SDS011;32445;51.376;10.874;2023-05-10T02:04:40;3.93;;;2.43;;
46713;SDS011;32445;51.376;10.874;2023-05-10T02:07:42;4.80;;;2.53;;
46713;SDS011;32445;51.376;10.874;2023-05-10T02:10:44;2.60;;;2.40;;
46713;SDS011;32445;51.376;10.874;2023-05-10T02:13:46;4.18;;;2.72;;
46713;SDS011;32445;51.376;10.874;2023-05-10T02:16:49;3.25;;;2.92;;
46713;SDS011;32445;51.376;10.874;2023-05-10T02:19:51;4.45;;;2.85;;
46713;SDS011;32445;51.376;10.874;2023-05-10T02:22:54;4.07;;;2.85;;
46713;SDS011;32445;51.376;10.874;2023-05-10T02:25:56;2.90;;;2.65;;
46713;SDS011;32445;51.376;10.874;2023-05-10T02:29:00;2.70;;;2.50;;
46713;SDS011;32445;51.376;10.874;2023-05-10T02:32:03;2.92;;;2.70;;
46713;SDS011;32445;51.376;10.874;2023-05-10T02:35:04;4.10;;;3.53;;
46713;SDS011;32445;51.376;10.874;2023-05-10T02:38:05;6.00;;;2.40;;
46713;SDS011;32445;51.376;10.874;2023-05-10T02:44:09;2.83;;;2.63;;
46713;SDS011;32445;51.376;10.874;2023-05-10T02:47:11;4.15;;;2.75;;
46713;SDS011;32445;51.376;10.874;2023-05-10T02:50:12;4.00;;;3.10;;
46713;SDS011;32445;51.376;10.874;2023-05-10T02:53:17;5.47;;;3.10;;
46713;SDS011;32445;51.376;10.874;2023-05-10T02:56:40;3.83;;;2.60;;
46713;SDS011;32445;51.376;10.874;2023-05-10T02:59:46;2.92;;;2.42;;
46713;SDS011;32445;51.376;10.874;2023-05-10T03:02:47;3.63;;;2.97;;
46713;SDS011;32445;51.376;10.874;2023-05-10T03:05:47;2.50;;;2.30;;
46713;SDS011;32445;51.376;10.874;2023-05-10T03:08:47;2.73;;;2.53;;
46713;SDS011;32445;51.376;10.874;2023-05-10T03:12:02;2.73;;;2.53;;
46713;SDS011;32445;51.376;10.874;2023-05-10T03:15:13;2.92;;;2.63;;
46713;SDS011;32445;51.376;10.874;2023-05-10T03:18:20;2.75;;;2.55;;
46713;SDS011;32445;51.376;10.874;2023-05-10T03:21:23;3.30;;;2.70;;
46713;SDS011;32445;51.376;10.874;2023-05-10T03:24:28;2.25;;;2.15;;
46713;SDS011;32445;51.376;10.874;2023-05-10T03:27:30;5.65;;;3.38;;
46713;SDS011;32445;51.376;10.874;2023-05-10T03:30:32;3.10;;;2.78;;
46713;SDS011;32445;51.376;10.874;2023-05-10T03:33:34;2.90;;;2.70;;
46713;SDS011;32445;51.376;10.874;2023-05-10T03:36:35;3.43;;;2.80;;
46713;SDS011;32445;51.376;10.874;2023-05-10T03:39:36;2.50;;;2.30;;
46713;SDS011;32445;51.376;10.874;2023-05-10T03:42:36;3.40;;;2.47;;
46713;SDS011;32445;51.376;10.874;2023-05-10T03:45:36;3.13;;;2.83;;
46713;SDS011;32445;51.376;10.874;2023-05-10T03:48:37;2.63;;;2.40;;
46713;SDS011;32445;51.376;10.874;2023-05-10T03:51:37;3.17;;;2.90;;
46713;SDS011;32445;51.376;10.874;2023-05-10T03:54:37;3.30;;;2.20;;
46713;SDS011;32445;51.376;10.874;2023-05-10T03:57:38;2.80;;;2.47;;
46713;SDS011;32445;51.376;10.874;2023-05-10T04:00:38;4.43;;;2.87;;
46713;SDS011;32445;51.376;10.874;2023-05-10T04:03:43;3.03;;;2.83;;
46713;SDS011;32445;51.376;10.874;2023-05-10T04:06:44;3.03;;;2.83;;
46713;SDS011;32445;51.376;10.874;2023-05-10T04:09:44;3.77;;;3.13;;
46713;SDS011;32445;51.376;10.874;2023-05-10T04:12:45;2.93;;;2.73;;
46713;SDS011;32445;51.376;10.874;2023-05-10T04:15:45;3.00;;;2.80;;
46713;SDS011;32445;51.376;10.874;2023-05-10T04:18:45;8.17;;;3.37;;
46713;SDS011;32445;51.376;10.874;2023-05-10T04:21:46;2.73;;;2.53;;
46713;SDS011;32445;51.376;10.874;2023-05-10T04:24:46;2.70;;;2.50;;
46713;SDS011;32445;51.376;10.874;2023-05-10T04:27:46;5.17;;;2.97;;
46713;SDS011;32445;51.376;10.874;2023-05-10T04:30:47;5.57;;;2.53;;
46713;SDS011;32445;51.376;10.874;2023-05-10T04:33:47;5.80;;;3.03;;
46713;SDS011;32445;51.376;10.874;2023-05-10T04:36:47;3.60;;;2.60;;
46713;SDS011;32445;51.376;10.874;2023-05-10T04:39:48;2.93;;;2.73;;
46713;SDS011;32445;51.376;10.874;2023-05-10T04:42:48;3.20;;;3.00;;
46713;SDS011;32445;51.376;10.874;2023-05-10T04:45:49;5.17;;;3.00;;
46713;SDS011;32445;51.376;10.874;2023-05-10T04:48:50;4.30;;;2.87;;
46713;SDS011;32445;51.376;10.874;2023-05-10T04:51:50;5.43;;;3.37;;
46713;SDS011;32445;51.376;10.874;2023-05-10T04:54:50;3.20;;;3.00;;
46713;SDS011;32445;51.376;10.874;2023-05-10T04:57:51;3.20;;;3.00;;
46713;SDS011;32445;51.376;10.874;2023-05-10T05:00:51;5.30;;;3.10;;
46713;SDS011;32445;51.376;10.874;2023-05-10T05:03:51;4.40;;;3.73;;
46713;SDS011;32445;51.376;10.874;2023-05-10T05:06:52;3.70;;;3.40;;
46713;SDS011;32445;51.376;10.874;2023-05-10T05:09:53;5.23;;;3.27;;
46713;SDS011;32445;51.376;10.874;2023-05-10T05:12:53;8.20;;;3.60;;
46713;SDS011;32445;51.376;10.874;2023-05-10T05:15:53;3.50;;;3.30;;
46713;SDS011;32445;51.376;10.874;2023-05-10T05:18:54;8.20;;;3.57;;
46713;SDS011;32445;51.376;10.874;2023-05-10T05:21:55;3.60;;;3.17;;
46713;SDS011;32445;51.376;10.874;2023-05-10T05:24:56;5.03;;;3.10;;
46713;SDS011;32445;51.376;10.874;2023-05-10T05:30:58;8.98;;;3.53;;
46713;SDS011;32445;51.376;10.874;2023-05-10T05:33:58;4.87;;;3.00;;
46713;SDS011;32445;51.376;10.874;2023-05-10T05:36:59;4.20;;;2.70;;
46713;SDS011;32445;51.376;10.874;2023-05-10T05:39:59;7.03;;;3.30;;
46713;SDS011;32445;51.376;10.874;2023-05-10T05:43:01;4.25;;;3.63;;
46713;SDS011;32445;51.376;10.874;2023-05-10T05:46:02;5.60;;;3.40;;
46713;SDS011;32445;51.376;10.874;2023-05-10T05:49:02;5.40;;;3.83;;
46713;SDS011;32445;51.376;10.874;2023-05-10T05:52:03;3.73;;;3.43;;
46713;SDS011;32445;51.376;10.874;2023-05-10T05:55:04;3.30;;;3.00;;
46713;SDS011;32445;51.376;10.874;2023-05-10T05:58:04;3.33;;;3.07;;
46713;SDS011;32445;51.376;10.874;2023-05-10T06:01:05;4.10;;;3.23;;
46713;SDS011;32445;51.376;10.874;2023-05-10T06:04:05;5.33;;;2.80;;
46713;SDS011;32445;51.376;10.874;2023-05-10T06:07:05;3.27;;;3.03;;
46713;SDS011;32445;51.376;10.874;2023-05-10T06:10:06;6.27;;;3.30;;
46713;SDS011;32445;51.376;10.874;2023-05-10T06:13:06;3.60;;;3.30;;
46713;SDS011;32445;51.376;10.874;2023-05-10T06:16:07;4.13;;;3.73;;
46713;SDS011;32445;51.376;10.874;2023-05-10T06:19:07;3.20;;;2.90;;
46713;SDS011;32445;51.376;10.874;2023-05-10T06:22:08;3.73;;;3.30;;
46713;SDS011;32445;51.376;10.874;2023-05-10T06:25:08;6.83;;;3.77;;
46713;SDS011;32445;51.376;10.874;2023-05-10T06:28:09;3.60;;;3.30;;
46713;SDS011;32445;51.376;10.874;2023-05-10T06:31:10;5.80;;;4.10;;
46713;SDS011;32445;51.376;10.874;2023-05-10T06:37:12;3.58;;;3.38;;
46713;SDS011;32445;51.376;10.874;2023-05-10T06:40:12;3.43;;;3.17;;
46713;SDS011;32445;51.376;10.874;2023-05-10T06:43:13;6.47;;;3.80;;
46713;SDS011;32445;51.376;10.874;2023-05-10T06:46:13;4.83;;;4.23;;
46713;SDS011;32445;51.376;10.874;2023-05-10T06:49:14;4.03;;;3.73;;
46713;SDS011;32445;51.376;10.874;2023-05-10T06:52:14;5.77;;;3.80;;
46713;SDS011;32445;51.376;10.874;2023-05-10T06:55:14;4.93;;;4.07;;
46713;SDS011;32445;51.376;10.874;2023-05-10T06:58:15;4.70;;;4.27;;
46713;SDS011;32445;51.376;10.874;2023-05-10T07:01:15;4.20;;;3.47;;
46713;SDS011;32445;51.376;10.874;2023-05-10T07:04:16;6.37;;;4.27;;
46713;SDS011;32445;51.376;10.874;2023-05-10T07:07:17;3.88;;;3.15;;
46713;SDS011;32445;51.376;10.874;2023-05-10T07:10:18;4.03;;;3.72;;
46713;SDS011;32445;51.376;10.874;2023-05-10T07:13:19;3.40;;;3.20;;
46713;SDS011;32445;51.376;10.874;2023-05-10T07:16:19;3.80;;;3.50;;
46713;SDS011;32445;51.376;10.874;2023-05-10T07:19:19;4.70;;;3.47;;
46713;SDS011;32445;51.376;10.874;2023-05-10T07:22:20;3.50;;;3.30;;
46713;SDS011;32445;51.376;10.874;2023-05-10T07:25:20;3.63;;;3.33;;
46713;SDS011;32445;51.376;10.874;2023-05-10T07:28:21;4.20;;;3.90;;
46713;SDS011;32445;51.376;10.874;2023-05-10T07:31:21;6.47;;;4.37;;
46713;SDS011;32445;51.376;10.874;2023-05-10T07:34:22;5.17;;;4.27;;
46713;SDS011;32445;51.376;10.874;2023-05-10T07:37:22;4.70;;;4.30;;
46713;SDS011;32445;51.376;10.874;2023-05-10T07:40:22;4.57;;;4.27;;
46713;SDS011;32445;51.376;10.874;2023-05-10T07:43:23;5.10;;;4.73;;
46713;SDS011;32445;51.376;10.874;2023-05-10T07:46:23;4.17;;;3.87;;
46713;SDS011;32445;51.376;10.874;2023-05-10T07:49:24;4.60;;;4.20;;
46713;SDS011;32445;51.376;10.874;2023-05-10T07:52:25;3.75;;;3.42;;
46713;SDS011;32445;51.376;10.874;2023-05-10T07:55:25;3.87;;;3.57;;
46713;SDS011;32445;51.376;10.874;2023-05-10T07:58:26;3.80;;;3.17;;
46713;SDS011;32445;51.376;10.874;2023-05-10T08:01:27;3.47;;;3.27;;
46713;SDS011;32445;51.376;10.874;2023-05-10T08:04:30;4.10;;;3.80;;
46713;SDS011;32445;51.376;10.874;2023-05-10T08:07:31;5.20;;;3.40;;
46713;SDS011;32445;51.376;10.874;2023-05-10T08:10:31;3.97;;;3.67;;
46713;SDS011;32445;51.376;10.874;2023-05-10T08:13:32;3.50;;;3.20;;
46713;SDS011;32445;51.376;10.874;2023-05-10T08:16:32;4.63;;;3.90;;
46713;SDS011;32445;51.376;10.874;2023-05-10T08:19:33;3.97;;;3.43;;
46713;SDS011;32445;51.376;10.874;2023-05-10T08:22:33;3.57;;;3.37;;
46713;SDS011;32445;51.376;10.874;2023-05-10T08:25:33;4.17;;;3.70;;
46713;SDS011;32445;51.376;10.874;2023-05-10T08:28:34;3.23;;;2.93;;
46713;SDS011;32445;51.376;10.874;2023-05-10T08:31:34;6.30;;;3.20;;
46713;SDS011;32445;51.376;10.874;2023-05-10T08:34:34;4.30;;;3.17;;
46713;SDS011;32445;51.376;10.874;2023-05-10T08:37:35;3.47;;;3.27;;
46713;SDS011;32445;51.376;10.874;2023-05-10T08:40:36;3.63;;;3.23;;
46713;SDS011;32445;51.376;10.874;2023-05-10T08:43:37;3.33;;;2.20;;
46713;SDS011;32445;51.376;10.874;2023-05-10T08:46:39;4.18;;;3.15;;
46713;SDS011;32445;51.376;10.874;2023-05-10T08:49:44;2.20;;;2.10;;
46713;SDS011;32445;51.376;10.874;2023-05-10T08:52:48;2.13;;;1.92;;
46713;SDS011;32445;51.376;10.874;2023-05-10T08:55:52;2.30;;;2.10;;
46713;SDS011;32445;51.376;10.874;2023-05-10T08:58:53;2.43;;;2.23;;
46713;SDS011;32445;51.376;10.874;2023-05-10T09:01:55;2.90;;;2.55;;
46713;SDS011;32445;51.376;10.874;2023-05-10T09:04:57;5.50;;;2.17;;
46713;SDS011;32445;51.376;10.874;2023-05-10T09:07:57;2.80;;;2.60;;
46713;SDS011;32445;51.376;10.874;2023-05-10T09:11:00;2.90;;;2.70;;
46713;SDS011;32445;51.376;10.874;2023-05-10T09:14:01;2.22;;;2.00;;
46713;SDS011;32445;51.376;10.874;2023-05-10T09:17:02;3.15;;;2.85;;
46713;SDS011;32445;51.376;10.874;2023-05-10T09:20:03;2.57;;;2.37;;
46713;SDS011;32445;51.376;10.874;2023-05-10T09:26:05;0.93;;;0.80;;
46713;SDS011;32445;51.376;10.874;2023-05-10T09:29:06;1.42;;;0.80;;
46713;SDS011;32445;51.376;10.874;2023-05-10T09:35:12;3.47;;;0.90;;
46713;SDS011;32445;51.376;10.874;2023-05-10T09:38:14;0.77;;;0.77;;
46713;SDS011;32445;51.376;10.874;2023-05-10T09:41:18;1.13;;;1.03;;
46713;SDS011;32445;51.376;10.874;2023-05-10T09:44:20;1.40;;;1.05;;
46713;SDS011;32445;51.376;10.874;2023-05-10T09:47:20;3.00;;;1.10;;
46713;SDS011;32445;51.376;10.874;2023-05-10T09:50:22;1.03;;;0.90;;
46713;SDS011;32445;51.376;10.874;2023-05-10T09:53:22;0.80;;;0.80;;
46713;SDS011;32445;51.376;10.874;2023-05-10T09:56:33;0.90;;;0.90;;
46713;SDS011;32445;51.376;10.874;2023-05-10T10:02:35;1.50;;;0.95;;
46713;SDS011;32445;51.376;10.874;2023-05-10T10:05:36;0.43;;;0.43;;
46713;SDS011;32445;51.376;10.874;2023-05-10T10:08:36;2.03;;;0.80;;
46713;SDS011;32445;51.376;10.874;2023-05-10T10:11:37;2.03;;;0.77;;
46713;SDS011;32445;51.376;10.874;2023-05-10T10:14:38;0.47;;;0.40;;
46713;SDS011;32445;51.376;10.874;2023-05-10T10:17:39;0.87;;;0.67;;
46713;SDS011;32445;51.376;10.874;2023-05-10T10:20:40;1.98;;;0.50;;
46713;SDS011;32445;51.376;10.874;2023-05-10T10:23:41;0.83;;;0.63;;
46713;SDS011;32445;51.376;10.874;2023-05-10T10:26:41;0.60;;;0.60;;
46713;SDS011;32445;51.376;10.874;2023-05-10T10:36:03;2.63;;;0.80;;
46713;SDS011;32445;51.376;10.874;2023-05-10T10:39:07;0.95;;;0.88;;
46713;SDS011;32445;51.376;10.874;2023-05-10T10:42:09;1.15;;;0.93;;
46713;SDS011;32445;51.376;10.874;2023-05-10T10:45:13;1.30;;;1.00;;
46713;SDS011;32445;51.376;10.874;2023-05-10T10:48:22;0.63;;;0.63;;
46713;SDS011;32445;51.376;10.874;2023-05-10T10:51:23;0.60;;;0.60;;
46713;SDS011;32445;51.376;10.874;2023-05-10T10:54:26;1.07;;;0.50;;
46713;SDS011;32445;51.376;10.874;2023-05-10T10:57:30;0.98;;;0.55;;
46713;SDS011;32445;51.376;10.874;2023-05-10T11:00:33;0.60;;;0.50;;
46713;SDS011;32445;51.376;10.874;2023-05-10T11:03:35;2.28;;;0.40;;
46713;SDS011;32445;51.376;10.874;2023-05-10T11:06:36;2.10;;;0.40;;
46713;SDS011;32445;51.376;10.874;2023-05-10T11:09:39;0.77;;;0.53;;
46713;SDS011;32445;51.376;10.874;2023-05-10T11:12:50;1.85;;;0.50;;
46713;SDS011;32445;51.376;10.874;2023-05-10T11:19:15;0.68;;;0.50;;
46713;SDS011;32445;51.376;10.874;2023-05-10T11:25:18;2.13;;;0.50;;
46713;SDS011;32445;51.376;10.874;2023-05-10T11:28:19;0.80;;;0.50;;
46713;SDS011;32445;51.376;10.874;2023-05-10T11:31:19;2.67;;;0.80;;
46713;SDS011;32445;51.376;10.874;2023-05-10T11:34:24;1.13;;;0.80;;
46713;SDS011;32445;51.376;10.874;2023-05-10T11:37:28;0.68;;;0.60;;
46713;SDS011;32445;51.376;10.874;2023-05-10T11:40:34;0.60;;;0.60;;
46713;SDS011;32445;51.376;10.874;2023-05-10T11:43:35;0.60;;;0.60;;
46713;SDS011;32445;51.376;10.874;2023-05-10T11:46:38;1.00;;;0.75;;
46713;SDS011;32445;51.376;10.874;2023-05-10T11:49:38;1.10;;;0.57;;
46713;SDS011;32445;51.376;10.874;2023-05-10T11:52:38;2.07;;;0.50;;
46713;SDS011;32445;51.376;10.874;2023-05-10T11:55:39;0.53;;;0.53;;
46713;SDS011;32445;51.376;10.874;2023-05-10T11:58:39;0.53;;;0.50;;
46713;SDS011;32445;51.376;10.874;2023-05-10T12:01:40;0.67;;;0.67;;
46713;SDS011;32445;51.376;10.874;2023-05-10T12:04:41;2.10;;;0.77;;
46713;SDS011;32445;51.376;10.874;2023-05-10T12:07:41;0.70;;;0.40;;
46713;SDS011;32445;51.376;10.874;2023-05-10T12:10:42;1.40;;;0.50;;
46713;SDS011;32445;51.376;10.874;2023-05-10T12:13:43;0.87;;;0.60;;
46713;SDS011;32445;51.376;10.874;2023-05-10T12:16:47;0.70;;;0.70;;
46713;SDS011;32445;51.376;10.874;2023-05-10T12:19:48;0.60;;;0.40;;
46713;SDS011;32445;51.376;10.874;2023-05-10T12:22:55;0.40;;;0.40;;
46713;SDS011;32445;51.376;10.874;2023-05-10T12:26:01;0.80;;;0.50;;
46713;SDS011;32445;51.376;10.874;2023-05-10T12:29:17;0.65;;;0.50;;
46713;SDS011;32445;51.376;10.874;2023-05-10T12:32:18;0.60;;;0.50;;
46713;SDS011;32445;51.376;10.874;2023-05-10T12:35:19;0.90;;;0.70;;
46713;SDS011;32445;51.376;10.874;2023-05-10T12:41:26;0.40;;;0.40;;
46713;SDS011;32445;51.376;10.874;2023-05-10T12:44:27;2.47;;;0.70;;
46713;SDS011;32445;51.376;10.874;2023-05-10T12:47:27;1.10;;;0.40;;
46713;SDS011;32445;51.376;10.874;2023-05-10T12:50:28;1.00;;;0.50;;
46713;SDS011;32445;51.376;10.874;2023-05-10T12:53:28;2.43;;;0.40;;
46713;SDS011;32445;51.376;10.874;2023-05-10T12:56:29;0.65;;;0.30;;
46713;SDS011;32445;51.376;10.874;2023-05-10T12:59:29;0.70;;;0.20;;
46713;SDS011;32445;51.376;10.874;2023-05-10T13:02:30;0.57;;;0.20;;
46713;SDS011;32445;51.376;10.874;2023-05-10T13:05:31;2.17;;;0.20;;
46713;SDS011;32445;51.376;10.874;2023-05-10T13:08:34;0.80;;;0.32;;
46713;SDS011;32445;51.376;10.874;2023-05-10T13:11:35;1.10;;;0.37;;
46713;SDS011;32445;51.376;10.874;2023-05-10T13:14:35;0.80;;;0.40;;
46713;SDS011;32445;51.376;10.874;2023-05-10T13:17:35;0.67;;;0.20;;
46713;SDS011;32445;51.376;10.874;2023-05-10T13:20:37;0.20;;;0.20;;
46713;SDS011;32445;51.376;10.874;2023-05-10T13:23:37;0.73;;;0.30;;
46713;SDS011;32445;51.376;10.874;2023-05-10T13:26:37;0.20;;;0.13;;
46713;SDS011;32445;51.376;10.874;2023-05-10T13:29:38;0.30;;;0.23;;
46713;SDS011;32445;51.376;10.874;2023-05-10T13:32:38;0.10;;;0.10;;
46713;SDS011;32445;51.376;10.874;2023-05-10T13:35:38;0.10;;;0.10;;
46713;SDS011;32445;51.376;10.874;2023-05-10T13:38:39;0.40;;;0.10;;
46713;SDS011;32445;51.376;10.874;2023-05-10T13:41:39;0.20;;;0.10;;
46713;SDS011;32445;51.376;10.874;2023-05-10T13:44:39;0.47;;;0.10;;
46713;SDS011;32445;51.376;10.874;2023-05-10T13:47:40;0.20;;;0.10;;
46713;SDS011;32445;51.376;10.874;2023-05-10T13:50:41;0.60;;;0.20;;
46713;SDS011;32445;51.376;10.874;2023-05-10T13:53:41;0.20;;;0.10;;
46713;SDS011;32445;51.376;10.874;2023-05-10T13:56:41;0.50;;;0.20;;
46713;SDS011;32445;51.376;10.874;2023-05-10T13:59:42;0.10;;;0.10;;
46713;SDS011;32445;51.376;10.874;2023-05-10T14:02:42;3.30;;;0.20;;
46713;SDS011;32445;51.376;10.874;2023-05-10T14:05:43;0.25;;;0.20;;
46713;SDS011;32445;51.376;10.874;2023-05-10T14:08:44;0.38;;;0.25;;
46713;SDS011;32445;51.376;10.874;2023-05-10T14:11:45;5.45;;;0.38;;
46713;SDS011;32445;51.376;10.874;2023-05-10T14:14:46;0.40;;;0.10;;
46713;SDS011;32445;51.376;10.874;2023-05-10T14:17:46;4.23;;;0.40;;
46713;SDS011;32445;51.376;10.874;2023-05-10T14:20:46;1.03;;;0.27;;
46713;SDS011;32445;51.376;10.874;2023-05-10T14:23:47;0.30;;;0.20;;
46713;SDS011;32445;51.376;10.874;2023-05-10T14:26:47;0.30;;;0.30;;
46713;SDS011;32445;51.376;10.874;2023-05-10T14:29:47;2.30;;;0.27;;
46713;SDS011;32445;51.376;10.874;2023-05-10T14:32:48;0.23;;;0.20;;
46713;SDS011;32445;51.376;10.874;2023-05-10T14:35:48;0.50;;;0.20;;
46713;SDS011;32445;51.376;10.874;2023-05-10T14:38:48;0.47;;;0.17;;
46713;SDS011;32445;51.376;10.874;2023-05-10T14:41:49;0.40;;;0.17;;
46713;SDS011;32445;51.376;10.874;2023-05-10T14:44:51;0.45;;;0.20;;
46713;SDS011;32445;51.376;10.874;2023-05-10T14:47:51;0.53;;;0.10;;
46713;SDS011;32445;51.376;10.874;2023-05-10T14:50:51;0.63;;;0.20;;
46713;SDS011;32445;51.376;10.874;2023-05-10T14:53:52;0.82;;;0.40;;
46713;SDS011;32445;51.376;10.874;2023-05-10T14:56:52;0.23;;;0.13;;
46713;SDS011;32445;51.376;10.874;2023-05-10T14:59:53;2.70;;;0.20;;
46713;SDS011;32445;51.376;10.874;2023-05-10T15:02:53;0.30;;;0.20;;
46713;SDS011;32445;51.376;10.874;2023-05-10T15:05:53;1.67;;;0.70;;
46713;SDS011;32445;51.376;10.874;2023-05-10T15:08:55;1.23;;;0.22;;
46713;SDS011;32445;51.376;10.874;2023-05-10T15:11:56;0.30;;;0.20;;
46713;SDS011;32445;51.376;10.874;2023-05-10T15:14:56;0.33;;;0.20;;
46713;SDS011;32445;51.376;10.874;2023-05-10T15:17:56;0.23;;;0.10;;
46713;SDS011;32445;51.376;10.874;2023-05-10T15:20:57;0.60;;;0.27;;
46713;SDS011;32445;51.376;10.874;2023-05-10T15:23:58;1.08;;;0.43;;
46713;SDS011;32445;51.376;10.874;2023-05-10T15:26:58;4.07;;;0.50;;
46713;SDS011;32445;51.376;10.874;2023-05-10T15:29:59;0.43;;;0.23;;
46713;SDS011;32445;51.376;10.874;2023-05-10T15:33:00;0.60;;;0.20;;
46713;SDS011;32445;51.376;10.874;2023-05-10T15:36:00;1.17;;;0.40;;
46713;SDS011;32445;51.376;10.874;2023-05-10T15:39:01;0.20;;;0.20;;
46713;SDS011;32445;51.376;10.874;2023-05-10T15:42:01;0.10;;;0.10;;
46713;SDS011;32445;51.376;10.874;2023-05-10T15:45:03;1.65;;;1.08;;
46713;SDS011;32445;51.376;10.874;2023-05-10T15:48:04;0.60;;;0.40;;
46713;SDS011;32445;51.376;10.874;2023-05-10T15:51:04;1.40;;;0.53;;
46713;SDS011;32445;51.376;10.874;2023-05-10T15:54:05;0.47;;;0.43;;
46713;SDS011;32445;51.376;10.874;2023-05-10T15:57:06;0.45;;;0.40;;
46713;SDS011;32445;51.376;10.874;2023-05-10T16:00:07;0.55;;;0.40;;
46713;SDS011;32445;51.376;10.874;2023-05-10T16:03:08;0.63;;;0.50;;
46713;SDS011;32445;51.376;10.874;2023-05-10T16:06:09;3.40;;;0.37;;
46713;SDS011;32445;51.376;10.874;2023-05-10T16:09:09;0.67;;;0.40;;
46713;SDS011;32445;51.376;10.874;2023-05-10T16:12:10;0.60;;;0.30;;
46713;SDS011;32445;51.376;10.874;2023-05-10T16:15:10;1.70;;;0.57;;
46713;SDS011;32445;51.376;10.874;2023-05-10T16:18:10;0.80;;;0.40;;
46713;SDS011;32445;51.376;10.874;2023-05-10T16:21:11;0.85;;;0.55;;
46713;SDS011;32445;51.376;10.874;2023-05-10T16:24:11;1.50;;;0.57;;
46713;SDS011;32445;51.376;10.874;2023-05-10T16:27:12;1.90;;;0.57;;
46713;SDS011;32445;51.376;10.874;2023-05-10T16:30:12;2.28;;;0.30;;
46713;SDS011;32445;51.376;10.874;2023-05-10T16:33:13;0.90;;;0.40;;
46713;SDS011;32445;51.376;10.874;2023-05-10T16:36:13;0.30;;;0.20;;
46713;SDS011;32445;51.376;10.874;2023-05-10T16:39:14;0.30;;;0.30;;
46713;SDS011;32445;51.376;10.874;2023-05-10T16:42:14;2.20;;;0.43;;
46713;SDS011;32445;51.376;10.874;2023-05-10T16:45:15;2.80;;;0.30;;
46713;SDS011;32445;51.376;10.874;2023-05-10T16:48:15;1.92;;;0.30;;
46713;SDS011;32445;51.376;10.874;2023-05-10T16:51:16;0.60;;;0.30;;
46713;SDS011;32445;51.376;10.874;2023-05-10T16:54:16;0.60;;;0.30;;
46713;SDS011;32445;51.376;10.874;2023-05-10T16:57:17;1.55;;;0.52;;
46713;SDS011;32445;51.376;10.874;2023-05-10T17:00:18;0.43;;;0.20;;
46713;SDS011;32445;51.376;10.874;2023-05-10T17:03:19;1.00;;;0.50;;
46713;SDS011;32445;51.376;10.874;2023-05-10T17:06:20;1.10;;;0.50;;
46713;SDS011;32445;51.376;10.874;2023-05-10T17:09:20;0.63;;;0.50;;
46713;SDS011;32445;51.376;10.874;2023-05-10T17:12:21;1.10;;;0.70;;
46713;SDS011;32445;51.376;10.874;2023-05-10T17:15:21;0.40;;;0.40;;
46713;SDS011;32445;51.376;10.874;2023-05-10T17:18:21;0.53;;;0.47;;
46713;SDS011;32445;51.376;10.874;2023-05-10T17:21:22;0.50;;;0.50;;
46713;SDS011;32445;51.376;10.874;2023-05-10T17:24:22;1.23;;;0.90;;
46713;SDS011;32445;51.376;10.874;2023-05-10T17:27:22;1.30;;;0.63;;
46713;SDS011;32445;51.376;10.874;2023-05-10T17:30:23;6.70;;;1.13;;
46713;SDS011;32445;51.376;10.874;2023-05-10T17:33:29;8.35;;;2.15;;
46713;SDS011;32445;51.376;10.874;2023-05-10T17:36:29;11.45;;;3.70;;
46713;SDS011;32445;51.376;10.874;2023-05-10T17:39:30;11.83;;;2.27;;
46713;SDS011;32445;51.376;10.874;2023-05-10T17:42:33;6.07;;;1.25;;
46713;SDS011;32445;51.376;10.874;2023-05-10T17:45:34;4.23;;;1.43;;
46713;SDS011;32445;51.376;10.874;2023-05-10T17:48:34;9.10;;;2.43;;
46713;SDS011;32445;51.376;10.874;2023-05-10T17:51:36;4.15;;;1.63;;
46713;SDS011;32445;51.376;10.874;2023-05-10T17:54:36;6.20;;;1.27;;
46713;SDS011;32445;51.376;10.874;2023-05-10T17:57:37;10.40;;;2.03;;
46713;SDS011;32445;51.376;10.874;2023-05-10T18:00:37;3.93;;;1.10;;
46713;SDS011;32445;51.376;10.874;2023-05-10T18:03:38;10.60;;;2.13;;
46713;SDS011;32445;51.376;10.874;2023-05-10T18:06:38;6.47;;;2.20;;
46713;SDS011;32445;51.376;10.874;2023-05-10T18:09:39;4.22;;;1.70;;
46713;SDS011;32445;51.376;10.874;2023-05-10T18:12:39;6.23;;;1.77;;
46713;SDS011;32445;51.376;10.874;2023-05-10T18:15:40;3.33;;;1.13;;
46713;SDS011;32445;51.376;10.874;2023-05-10T18:18:40;3.23;;;1.30;;
46713;SDS011;32445;51.376;10.874;2023-05-10T18:21:41;7.57;;;1.30;;
46713;SDS011;32445;51.376;10.874;2023-05-10T18:24:41;4.40;;;1.20;;
46713;SDS011;32445;51.376;10.874;2023-05-10T18:27:41;3.90;;;1.30;;
46713;SDS011;32445;51.376;10.874;2023-05-10T18:30:42;4.93;;;1.60;;
46713;SDS011;32445;51.376;10.874;2023-05-10T18:33:43;2.30;;;1.33;;
46713;SDS011;32445;51.376;10.874;2023-05-10T18:36:43;2.97;;;1.80;;
46713;SDS011;32445;51.376;10.874;2023-05-10T18:39:44;5.17;;;1.70;;